createdAt,value
2018-07-27T00:02:25.951Z,26.10
2018-07-27T00:04:53.541Z,26.00
2018-07-27T00:07:21.177Z,25.80
2018-07-27T00:09:48.710Z,25.70
2018-07-27T00:12:16.250Z,25.70
2018-07-27T00:14:43.948Z,25.80
2018-07-27T00:17:11.610Z,25.60
2018-07-27T00:19:39.140Z,25.60
2018-07-27T00:22:06.688Z,25.60
2018-07-27T00:24:34.248Z,25.70
2018-07-27T00:27:01.799Z,25.60
2018-07-27T00:29:29.353Z,25.50
2018-07-27T00:31:56.932Z,25.40
2018-07-27T00:34:24.633Z,25.30
2018-07-27T00:36:52.218Z,25.30
2018-07-27T00:39:19.733Z,25.20
2018-07-27T00:41:47.400Z,25.20
2018-07-27T00:44:14.996Z,25.40
2018-07-27T00:46:42.619Z,25.40
2018-07-27T00:49:10.149Z,25.50
2018-07-27T00:51:37.695Z,25.30
2018-07-27T00:54:05.222Z,25.20
2018-07-27T00:56:32.761Z,25.20
2018-07-27T00:59:00.316Z,25.30
2018-07-27T01:03:55.440Z,25.30
2018-07-27T01:06:23.822Z,25.00
2018-07-27T01:08:51.408Z,24.80
2018-07-27T01:13:46.448Z,24.90
2018-07-27T01:16:13.986Z,25.00
2018-07-27T01:18:41.534Z,25.00
2018-07-27T01:23:36.700Z,24.80
2018-07-27T01:26:04.417Z,24.70
2018-07-27T01:28:31.936Z,24.70
2018-07-27T01:30:59.438Z,24.60
2018-07-27T01:35:55.079Z,24.60
2018-07-27T01:38:22.601Z,24.50
2018-07-27T01:40:50.146Z,24.70
2018-07-27T01:43:17.645Z,24.60
2018-07-27T01:48:12.711Z,24.50
2018-07-27T01:50:40.200Z,24.40
2018-07-27T01:55:35.467Z,24.10
2018-07-27T01:58:03.047Z,24.30
2018-07-27T02:00:30.703Z,24.30
2018-07-27T02:02:58.366Z,24.40
2018-07-27T02:05:25.900Z,24.40
2018-07-27T02:07:53.489Z,24.20
2018-07-27T02:10:21.032Z,24.10
2018-07-27T02:12:48.656Z,24.10
2018-07-27T02:15:16.365Z,24.30
2018-07-27T02:17:43.955Z,24.20
2018-07-27T02:20:11.526Z,24.10
2018-07-27T02:22:39.093Z,24.00
2018-07-27T02:25:06.636Z,23.90
2018-07-27T02:27:34.181Z,23.80
2018-07-27T02:30:01.722Z,24.00
2018-07-27T02:32:29.329Z,23.90
2018-07-27T02:34:56.882Z,23.70
2018-07-27T02:37:24.492Z,23.80
2018-07-27T02:39:52.055Z,23.60
2018-07-27T02:42:19.610Z,23.80
2018-07-27T02:44:47.186Z,23.90
2018-07-27T02:47:14.696Z,23.60
2018-07-27T02:49:42.254Z,23.70
2018-07-27T02:52:09.757Z,23.60
2018-07-27T02:54:37.303Z,23.50
2018-07-27T02:57:04.844Z,23.30
2018-07-27T02:59:32.403Z,23.40
2018-07-27T03:01:59.942Z,23.60
2018-07-27T03:04:27.479Z,23.60
2018-07-27T03:06:54.985Z,23.60
2018-07-27T03:09:22.542Z,23.60
2018-07-27T03:11:50.080Z,23.60
2018-07-27T03:14:17.675Z,23.60
2018-07-27T03:16:45.209Z,23.60
2018-07-27T03:19:12.871Z,23.50
2018-07-27T03:21:40.399Z,23.40
2018-07-27T03:24:07.989Z,23.50
2018-07-27T03:26:35.534Z,23.40
2018-07-27T03:29:03.223Z,23.40
2018-07-27T03:31:30.777Z,23.40
2018-07-27T03:33:58.326Z,23.50
2018-07-27T03:36:25.831Z,23.30
2018-07-27T03:41:20.937Z,23.20
2018-07-27T03:46:16.115Z,23.30
2018-07-27T03:48:43.655Z,23.30
2018-07-27T03:51:11.185Z,23.40
2018-07-27T03:53:38.732Z,23.60
2018-07-27T03:56:06.271Z,23.50
2018-07-27T03:58:33.796Z,23.40
2018-07-27T04:01:01.338Z,23.50
2018-07-27T04:03:28.940Z,23.50
2018-07-27T04:05:56.491Z,23.50
2018-07-27T04:08:24.048Z,23.50
2018-07-27T04:10:51.589Z,23.40
2018-07-27T04:13:19.180Z,23.50
2018-07-27T04:15:46.692Z,23.60
2018-07-27T04:18:14.233Z,23.60
2018-07-27T04:23:09.295Z,23.50
2018-07-27T04:25:36.831Z,23.50
2018-07-27T04:28:04.656Z,23.50
2018-07-27T04:30:32.185Z,23.50
2018-07-27T04:32:59.733Z,23.50
2018-07-27T04:35:27.329Z,23.50
2018-07-27T04:37:54.852Z,23.30
2018-07-27T04:40:22.460Z,23.50
2018-07-27T04:42:50.035Z,23.40
2018-07-27T04:45:17.654Z,23.50
2018-07-27T04:47:45.181Z,23.50
2018-07-27T04:50:12.748Z,23.50
2018-07-27T04:52:40.271Z,23.40
2018-07-27T04:55:07.868Z,23.50
2018-07-27T04:57:35.384Z,23.50
2018-07-27T05:00:03.626Z,23.60
2018-07-27T05:02:31.375Z,23.50
2018-07-27T05:04:58.951Z,23.70
2018-07-27T05:07:26.484Z,23.60
2018-07-27T05:09:54.032Z,23.90
2018-07-27T05:12:21.558Z,23.80
2018-07-27T05:14:49.166Z,23.90
2018-07-27T05:17:16.679Z,24.00
2018-07-27T05:19:44.223Z,23.80
2018-07-27T05:22:11.939Z,23.70
2018-07-27T05:24:39.631Z,23.70
2018-07-27T05:27:07.141Z,23.50
2018-07-27T05:29:34.756Z,23.70
2018-07-27T05:34:29.804Z,23.70
2018-07-27T05:36:57.364Z,23.70
2018-07-27T05:39:24.920Z,23.90
2018-07-27T05:41:52.457Z,23.50
2018-07-27T05:44:20.019Z,23.70
2018-07-27T05:46:47.632Z,24.00
2018-07-27T05:49:15.288Z,24.10
2018-07-27T05:51:43.013Z,24.00
2018-07-27T05:54:10.592Z,23.90
2018-07-27T05:56:38.148Z,23.90
2018-07-27T05:59:05.754Z,24.10
2018-07-27T06:01:33.316Z,24.00
2018-07-27T06:06:28.464Z,24.20
2018-07-27T06:08:56.011Z,24.10
2018-07-27T06:18:46.249Z,24.10
2018-07-27T06:21:13.959Z,24.10
2018-07-27T06:23:41.670Z,24.30
2018-07-27T06:26:09.296Z,24.30
2018-07-27T06:28:36.839Z,24.30
2018-07-27T06:31:04.500Z,24.40
2018-07-27T06:33:32.169Z,24.40
2018-07-27T06:35:59.746Z,24.50
2018-07-27T06:38:27.477Z,24.60
2018-07-27T06:40:55.166Z,24.60
2018-07-27T06:43:22.714Z,24.70
2018-07-27T06:45:50.368Z,24.70
2018-07-27T06:48:19.047Z,24.90
2018-07-27T06:50:48.048Z,24.80
2018-07-27T06:53:15.705Z,24.80
2018-07-27T06:55:43.893Z,24.60
2018-07-27T06:58:11.414Z,24.80
2018-07-27T07:00:38.976Z,24.90
2018-07-27T07:03:06.506Z,24.90
2018-07-27T07:05:34.055Z,25.00
2018-07-27T07:08:01.598Z,25.00
2018-07-27T07:12:56.648Z,25.00
2018-07-27T07:15:24.346Z,25.00
2018-07-27T07:17:51.870Z,25.00
2018-07-27T07:20:19.438Z,25.30
2018-07-27T07:22:46.973Z,25.40
2018-07-27T07:25:14.566Z,25.20
2018-07-27T07:27:42.091Z,25.50
2018-07-27T07:30:09.697Z,25.50
2018-07-27T07:32:37.232Z,25.50
2018-07-27T07:35:04.961Z,25.50
2018-07-27T07:40:00.041Z,25.60
2018-07-27T07:42:27.620Z,25.50
2018-07-27T07:47:22.762Z,25.50
2018-07-27T07:49:50.576Z,25.70
2018-07-27T07:52:18.114Z,25.70
2018-07-27T07:54:45.794Z,25.60
2018-07-27T07:57:13.328Z,25.60
2018-07-27T07:59:40.894Z,25.60
2018-07-27T08:02:08.419Z,25.80
2018-07-27T08:04:36.029Z,25.80
2018-07-27T08:07:03.689Z,26.00
2018-07-27T08:09:31.257Z,25.90
2018-07-27T08:11:59.416Z,25.90
2018-07-27T08:14:26.984Z,26.10
2018-07-27T08:16:54.562Z,26.10
2018-07-27T08:19:22.124Z,26.20
2018-07-27T08:21:49.716Z,26.30
2018-07-27T08:24:17.269Z,26.30
2018-07-27T08:26:48.827Z,26.30
2018-07-27T08:29:20.526Z,26.30
2018-07-27T08:31:49.514Z,26.40
2018-07-27T08:34:17.685Z,26.50
2018-07-27T08:36:45.666Z,26.50
2018-07-27T08:39:15.156Z,26.70
2018-07-27T08:41:43.148Z,26.70
2018-07-27T08:44:11.922Z,26.80
2018-07-27T08:46:39.611Z,26.90
2018-07-27T08:51:35.002Z,26.90
2018-07-27T08:54:02.601Z,27.00
2018-07-27T08:58:57.701Z,27.00
2018-07-27T09:01:25.298Z,27.00
2018-07-27T09:03:53.307Z,27.10
2018-07-27T09:06:20.904Z,27.10
2018-07-27T09:08:49.248Z,27.30
2018-07-27T09:11:17.016Z,27.30
2018-07-27T09:13:44.566Z,27.20
2018-07-27T09:16:12.128Z,27.30
2018-07-27T09:18:39.680Z,27.40
2018-07-27T09:21:07.239Z,27.40
2018-07-27T09:23:35.092Z,27.40
2018-07-27T09:26:02.691Z,27.40
2018-07-27T09:28:30.324Z,27.40
2018-07-27T09:30:57.889Z,27.60
2018-07-27T09:33:25.403Z,27.70
2018-07-27T09:35:53.381Z,27.70
2018-07-27T09:38:21.075Z,27.80
2018-07-27T09:40:48.968Z,27.90
2018-07-27T09:43:16.992Z,27.90
2018-07-27T09:45:44.796Z,28.10
2018-07-27T09:48:12.419Z,28.30
2018-07-27T09:50:40.428Z,28.20
2018-07-27T09:53:07.982Z,28.10
2018-07-27T09:58:03.124Z,28.40
2018-07-27T10:05:31.502Z,28.80
2018-07-27T10:07:59.346Z,28.80
2018-07-27T10:10:26.907Z,28.70
2018-07-27T10:12:54.510Z,28.70
2018-07-27T10:15:23.149Z,28.60
2018-07-27T10:17:50.720Z,28.70
2018-07-27T10:20:18.298Z,28.80
2018-07-27T10:22:45.827Z,28.90
2018-07-27T10:25:13.496Z,28.80
2018-07-27T10:27:41.073Z,29.00
2018-07-27T10:30:08.580Z,28.90
2018-07-27T10:32:36.293Z,29.10
2018-07-27T10:35:03.837Z,29.10
2018-07-27T10:37:31.808Z,29.30
2018-07-27T10:39:59.462Z,29.30
2018-07-27T10:42:27.022Z,29.20
2018-07-27T10:44:54.625Z,29.30
2018-07-27T10:47:22.176Z,29.40
2018-07-27T10:52:17.683Z,29.50
2018-07-27T10:54:45.263Z,29.70
2018-07-27T10:57:12.875Z,29.80
2018-07-27T10:59:40.403Z,29.90
2018-07-27T11:02:08.112Z,29.80
2018-07-27T11:04:35.771Z,30.10
2018-07-27T11:07:03.415Z,30.30
2018-07-27T11:09:31.077Z,30.40
2018-07-27T11:11:58.623Z,30.40
2018-07-27T11:14:26.141Z,30.50
2018-07-27T11:21:48.841Z,30.50
2018-07-27T11:24:16.345Z,30.50
2018-07-27T11:26:43.910Z,30.60
2018-07-27T11:29:11.544Z,30.50
2018-07-27T11:31:39.108Z,30.50
2018-07-27T11:34:06.633Z,30.60
2018-07-27T11:36:34.219Z,30.80
2018-07-27T11:39:03.876Z,30.90
2018-07-27T11:41:31.451Z,31.10
2018-07-27T11:43:58.962Z,31.20
2018-07-27T11:46:26.534Z,31.10
2018-07-27T11:51:22.157Z,31.10
2018-07-27T11:53:49.695Z,31.20
2018-07-27T11:56:17.190Z,31.20
2018-07-27T12:01:12.364Z,31.60
2018-07-27T12:03:39.937Z,31.70
2018-07-27T12:06:07.476Z,31.50
2018-07-27T12:08:35.020Z,31.50
2018-07-27T12:11:02.615Z,31.60
2018-07-27T12:13:30.263Z,31.40
2018-07-27T12:15:57.919Z,31.40
2018-07-27T12:18:25.580Z,31.60
2018-07-27T12:20:53.379Z,31.80
2018-07-27T12:25:48.203Z,32.20
2018-07-27T12:28:15.774Z,32.40
2018-07-27T12:30:43.357Z,32.30
2018-07-27T12:33:10.631Z,32.30
2018-07-27T12:38:35.014Z,32.10
2018-07-27T12:41:02.506Z,31.90
2018-07-27T12:43:30.029Z,31.90
2018-07-27T12:45:57.535Z,31.80
2018-07-27T12:50:53.060Z,31.90
2018-07-27T12:53:20.589Z,32.10
2018-07-27T12:55:48.089Z,32.00
2018-07-27T12:58:15.592Z,31.90
2018-07-27T13:00:43.104Z,31.70
2018-07-27T13:03:10.622Z,31.50
2018-07-27T13:05:38.112Z,31.60
2018-07-27T13:08:05.660Z,31.90
2018-07-27T13:10:33.200Z,31.80
2018-07-27T13:13:00.712Z,32.00
2018-07-27T13:15:28.220Z,32.20
2018-07-27T13:17:55.764Z,32.20
2018-07-27T13:20:23.427Z,32.20
2018-07-27T13:22:50.989Z,32.20
2018-07-27T13:25:18.570Z,32.50
2018-07-27T13:30:13.535Z,32.60
2018-07-27T13:37:36.474Z,32.50
2018-07-27T13:40:04.910Z,32.40
2018-07-27T13:42:33.856Z,32.50
2018-07-27T13:45:01.394Z,32.80
2018-07-27T13:49:56.676Z,33.00
2018-07-27T13:52:24.239Z,33.00
2018-07-27T13:54:51.808Z,33.00
2018-07-27T13:57:19.400Z,33.20
2018-07-27T13:59:46.938Z,33.20
2018-07-27T14:02:14.676Z,33.20
2018-07-27T14:04:42.215Z,33.20
2018-07-27T14:07:10.604Z,33.40
2018-07-27T14:09:38.222Z,33.30
2018-07-27T14:14:33.412Z,33.10
2018-07-27T14:17:00.952Z,32.80
2018-07-27T14:19:29.127Z,32.50
2018-07-27T14:21:56.666Z,32.40
2018-07-27T14:24:24.224Z,32.50
2018-07-27T14:26:51.868Z,32.70
2018-07-27T14:29:19.508Z,32.90
2018-07-27T14:31:46.956Z,32.90
2018-07-27T14:34:14.506Z,33.20
2018-07-27T14:36:42.036Z,33.20
2018-07-27T14:39:11.551Z,33.10
2018-07-27T14:41:39.106Z,33.30
2018-07-27T14:46:34.516Z,33.70
2018-07-27T14:49:02.108Z,33.70
2018-07-27T14:51:29.723Z,33.50
2018-07-27T14:53:57.274Z,33.40
2018-07-27T14:56:24.752Z,33.40
2018-07-27T14:58:52.288Z,33.50
2018-07-27T15:01:19.790Z,33.60
2018-07-27T15:03:47.339Z,33.40
2018-07-27T15:06:14.855Z,33.40
2018-07-27T15:08:42.456Z,33.00
2018-07-27T15:11:09.973Z,32.90
2018-07-27T15:13:37.509Z,32.90
2018-07-27T15:18:32.897Z,33.50
2018-07-27T15:21:00.378Z,33.70
2018-07-27T15:25:55.411Z,33.80
2018-07-27T15:28:23.187Z,33.80
2018-07-27T15:30:50.838Z,33.70
2018-07-27T15:33:18.437Z,33.90
2018-07-27T15:35:45.959Z,33.80
2018-07-27T15:38:13.468Z,33.90
2018-07-27T15:40:40.996Z,34.10
2018-07-27T15:43:08.514Z,34.20
2018-07-27T15:48:03.591Z,34.10
2018-07-27T15:50:31.242Z,34.10
2018-07-27T15:52:59.796Z,34.10
2018-07-27T15:55:27.318Z,34.00
2018-07-27T16:00:24.256Z,34.30
2018-07-27T16:02:52.206Z,34.20
2018-07-27T16:05:19.721Z,34.30
2018-07-27T16:07:47.325Z,33.90
2018-07-27T16:10:14.881Z,33.60
2018-07-27T16:12:42.363Z,33.50
2018-07-27T16:15:09.868Z,33.60
2018-07-27T16:17:37.395Z,34.00
2018-07-27T16:20:05.014Z,34.10
2018-07-27T16:22:32.573Z,34.10
2018-07-27T16:25:00.165Z,34.30
2018-07-27T16:29:57.899Z,34.40
2018-07-27T16:32:25.403Z,34.40
2018-07-27T16:34:52.943Z,34.50
2018-07-27T16:37:20.455Z,34.60
2018-07-27T16:39:47.984Z,34.60
2018-07-27T16:42:15.496Z,34.50
2018-07-27T16:44:43.037Z,34.10
2018-07-27T16:47:10.559Z,33.80
2018-07-27T16:49:38.092Z,33.50
2018-07-27T16:52:05.632Z,33.60
2018-07-27T16:54:33.135Z,33.90
2018-07-27T16:57:00.754Z,34.00
2018-07-27T16:59:28.312Z,34.10
2018-07-27T17:01:55.851Z,34.20
2018-07-27T17:04:23.365Z,34.40
2018-07-27T17:09:18.413Z,34.60
2018-07-27T17:11:45.927Z,34.50
2018-07-27T17:14:13.438Z,34.30
2018-07-27T17:16:40.954Z,34.30
2018-07-27T17:21:36.275Z,34.40
2018-07-27T17:24:03.838Z,34.50
2018-07-27T17:28:58.903Z,34.30
2018-07-27T17:31:26.509Z,34.60
2018-07-27T17:33:54.012Z,34.70
2018-07-27T17:36:21.554Z,35.00
2018-07-27T17:38:49.443Z,35.40
2018-07-27T17:41:16.990Z,35.40
2018-07-27T17:43:44.506Z,35.60
2018-07-27T17:46:12.062Z,35.80
2018-07-27T17:48:39.546Z,36.10
2018-07-27T17:51:07.237Z,36.40
2018-07-27T17:53:34.750Z,36.40
2018-07-27T17:56:02.561Z,36.50
2018-07-27T17:58:30.080Z,36.40
2018-07-27T18:00:58.155Z,36.50
2018-07-27T18:03:25.695Z,36.60
2018-07-27T18:10:56.441Z,35.80
2018-07-27T18:15:51.510Z,35.30
2018-07-27T18:18:19.054Z,35.40
2018-07-27T18:20:46.574Z,35.30
2018-07-27T18:23:14.096Z,35.10
2018-07-27T18:25:41.649Z,34.90
2018-07-27T18:28:09.274Z,34.50
2018-07-27T18:30:36.804Z,34.30
2018-07-27T18:33:04.436Z,34.20
2018-07-27T18:35:31.945Z,34.20
2018-07-27T18:37:59.482Z,33.80
2018-07-27T18:40:27.078Z,33.60
2018-07-27T18:42:54.628Z,33.30
2018-07-27T18:45:22.266Z,33.20
2018-07-27T18:47:49.919Z,32.90
2018-07-27T18:50:17.459Z,32.70
2018-07-27T18:52:45.032Z,32.60
2018-07-27T18:57:40.080Z,32.50
2018-07-27T19:00:08.354Z,32.20
2018-07-27T19:02:36.055Z,31.90
2018-07-27T19:05:03.607Z,31.40
2018-07-27T19:07:32.006Z,31.30
2018-07-27T19:09:59.510Z,30.90
2018-07-27T19:12:27.107Z,30.60
2018-07-27T19:14:54.627Z,30.20
2018-07-27T19:17:22.158Z,30.20
2018-07-27T19:19:49.994Z,30.00
2018-07-27T19:22:17.531Z,29.90
2018-07-27T19:27:12.629Z,29.60
2018-07-27T19:29:40.149Z,29.40
2018-07-27T19:34:35.180Z,29.50
2018-07-27T19:37:02.796Z,29.50
2018-07-27T19:39:30.370Z,29.40
2018-07-27T19:41:57.917Z,29.40
2018-07-27T19:44:25.572Z,29.30
2018-07-27T19:49:20.639Z,29.10
2018-07-27T19:54:15.845Z,29.00
2018-07-27T19:59:10.874Z,29.00
2018-07-27T20:01:38.392Z,29.00
2018-07-27T20:04:05.947Z,28.80
2018-07-27T20:06:33.489Z,28.70
2018-07-27T20:09:01.020Z,28.60
2018-07-27T20:11:29.426Z,28.50
2018-07-27T20:13:56.935Z,28.40
2018-07-27T20:16:24.449Z,28.30
2018-07-27T20:18:51.971Z,28.30
2018-07-27T20:21:19.511Z,28.10
2018-07-27T20:23:47.011Z,28.10
2018-07-27T20:26:14.515Z,28.30
2018-07-27T20:28:42.080Z,28.10
2018-07-27T20:33:37.135Z,27.90
2018-07-27T20:36:04.803Z,27.90
2018-07-27T20:38:32.328Z,27.60
2018-07-27T20:40:59.938Z,27.70
2018-07-27T20:43:27.471Z,27.90
2018-07-27T20:45:54.979Z,27.90
2018-07-27T20:48:22.520Z,27.70
2018-07-27T20:50:50.036Z,27.50
2018-07-27T20:53:17.541Z,27.50
2018-07-27T20:55:45.036Z,27.40
2018-07-27T20:58:12.634Z,27.40
2018-07-27T21:00:40.122Z,27.50
2018-07-27T21:03:07.653Z,27.40
2018-07-27T21:05:35.162Z,27.30
2018-07-27T21:08:02.726Z,27.40
2018-07-27T21:10:30.279Z,27.20
2018-07-27T21:12:57.883Z,26.90
2018-07-27T21:15:25.429Z,27.10
2018-07-27T21:17:52.943Z,26.90
2018-07-27T21:20:20.475Z,27.00
2018-07-27T21:22:48.007Z,27.10
2018-07-27T21:25:15.517Z,27.20
2018-07-27T21:30:10.707Z,27.20
2018-07-27T21:32:38.238Z,27.10
2018-07-27T21:35:05.736Z,27.00
2018-07-27T21:37:33.275Z,26.90
2018-07-27T21:40:00.772Z,26.60
2018-07-27T21:42:28.300Z,26.60
2018-07-27T21:44:55.827Z,26.70
2018-07-27T21:47:23.396Z,26.40
2018-07-27T21:49:51.105Z,26.40
2018-07-27T21:54:46.237Z,26.60
2018-07-27T21:57:13.759Z,26.60
2018-07-27T21:59:41.317Z,26.60
2018-07-27T22:04:36.716Z,26.70
2018-07-27T22:07:04.356Z,26.60
2018-07-27T22:09:31.928Z,26.40
2018-07-27T22:11:59.492Z,26.40
2018-07-27T22:14:27.256Z,26.20
2018-07-27T22:16:55.203Z,26.00
2018-07-27T22:19:22.900Z,26.10
2018-07-27T22:21:50.396Z,26.10
2018-07-27T22:26:45.403Z,26.20
2018-07-27T22:31:40.501Z,26.20
2018-07-27T22:34:08.015Z,26.10
2018-07-27T22:36:35.571Z,26.10
2018-07-27T22:39:05.207Z,25.80
2018-07-27T22:41:32.781Z,25.90
2018-07-27T22:44:00.416Z,26.00
2018-07-27T22:46:27.910Z,25.70
2018-07-27T22:53:50.499Z,25.50
2018-07-27T22:56:18.208Z,25.50
2018-07-27T22:58:45.715Z,25.60
2018-07-27T23:03:40.796Z,25.60
2018-07-27T23:08:35.908Z,25.60
2018-07-27T23:11:03.473Z,25.60
2018-07-27T23:13:30.994Z,25.50
2018-07-27T23:15:58.502Z,25.50
2018-07-27T23:18:26.363Z,25.40
2018-07-27T23:20:53.930Z,25.30
2018-07-27T23:25:49.024Z,25.10
2018-07-27T23:28:16.675Z,25.00
2018-07-27T23:30:44.232Z,25.10
2018-07-27T23:33:11.779Z,25.20
2018-07-27T23:35:39.297Z,25.20
2018-07-27T23:38:06.913Z,25.20
2018-07-27T23:40:34.387Z,25.30
2018-07-27T23:43:01.919Z,25.20
2018-07-27T23:45:31.928Z,25.00
2018-07-27T23:50:26.955Z,25.10
2018-07-27T23:52:55.254Z,25.20
2018-07-27T23:55:23.179Z,25.20
2018-07-27T23:57:50.760Z,25.00
